createdAt,value
2023-05-02T00:01:52.073Z,2.83
2023-05-02T00:04:21.511Z,2.80
2023-05-02T00:06:49.324Z,3.13
2023-05-02T00:09:17.378Z,3.13
2023-05-02T00:11:45.081Z,3.05
2023-05-02T00:14:12.842Z,2.55
2023-05-02T00:16:40.634Z,3.38
2023-05-02T00:19:08.402Z,3.83
2023-05-02T00:21:37.475Z,3.15
2023-05-02T00:24:05.876Z,3.22
2023-05-02T00:26:34.769Z,3.47
2023-05-02T00:29:02.452Z,2.80
2023-05-02T00:31:30.274Z,3.28
2023-05-02T00:33:58.113Z,3.40
2023-05-02T00:36:27.335Z,3.75
2023-05-02T00:38:56.408Z,3.70
2023-05-02T00:41:24.109Z,3.13
2023-05-02T00:43:51.789Z,3.97
2023-05-02T00:46:19.660Z,3.78
2023-05-02T00:48:47.470Z,3.60
2023-05-02T00:51:15.267Z,4.18
2023-05-02T00:53:43.297Z,4.18
2023-05-02T00:56:12.651Z,3.97
2023-05-02T00:58:41.642Z,3.92
2023-05-02T01:01:34.715Z,3.97
2023-05-02T01:04:18.855Z,3.70
2023-05-02T01:06:58.568Z,3.80
2023-05-02T01:09:35.265Z,4.55
2023-05-02T01:12:11.359Z,4.10
2023-05-02T01:14:43.512Z,4.20
2023-05-02T01:17:14.740Z,4.07
2023-05-02T01:19:49.286Z,4.75
2023-05-02T01:22:18.135Z,4.30
2023-05-02T01:24:55.738Z,4.38
2023-05-02T01:27:35.466Z,4.40
2023-05-02T01:30:07.322Z,4.13
2023-05-02T01:32:38.280Z,4.18
2023-05-02T01:35:07.743Z,4.07
2023-05-02T01:37:36.165Z,4.03
2023-05-02T01:40:05.359Z,3.90
2023-05-02T01:42:34.873Z,3.85
2023-05-02T01:45:07.246Z,4.20
2023-05-02T01:47:37.336Z,5.10
2023-05-02T01:50:07.781Z,4.22
2023-05-02T01:52:35.860Z,4.35
2023-05-02T01:55:04.981Z,4.18
2023-05-02T01:57:33.454Z,3.78
2023-05-02T02:00:03.909Z,3.70
2023-05-02T02:02:36.646Z,3.60
2023-05-02T02:05:06.715Z,4.00
2023-05-02T02:07:34.751Z,3.70
2023-05-02T02:10:03.005Z,4.60
2023-05-02T02:12:37.542Z,3.42
2023-05-02T02:15:14.215Z,3.70
2023-05-02T02:17:48.909Z,3.58
2023-05-02T02:20:17.871Z,3.67
2023-05-02T02:22:46.755Z,4.15
2023-05-02T02:25:16.663Z,4.00
2023-05-02T02:27:44.652Z,3.58
2023-05-02T02:30:13.294Z,3.70
2023-05-02T02:32:41.082Z,3.63
2023-05-02T02:35:11.504Z,3.58
2023-05-02T02:37:46.763Z,3.63
2023-05-02T02:40:22.786Z,4.13
2023-05-02T02:42:56.823Z,4.22
2023-05-02T02:45:42.834Z,4.00
2023-05-02T02:48:20.341Z,3.63
2023-05-02T02:51:05.209Z,3.60
2023-05-02T02:53:39.802Z,4.15
2023-05-02T02:56:14.104Z,4.40
2023-05-02T02:58:48.773Z,4.22
2023-05-02T03:01:20.055Z,4.88
2023-05-02T03:03:49.145Z,4.50
2023-05-02T03:06:18.852Z,4.72
2023-05-02T03:08:46.701Z,5.13
2023-05-02T03:11:14.456Z,4.75
2023-05-02T03:13:42.167Z,4.60
2023-05-02T03:16:37.396Z,5.00
2023-05-02T03:19:06.803Z,4.32
2023-05-02T03:21:36.523Z,4.60
2023-05-02T03:24:05.883Z,4.60
2023-05-02T03:26:33.657Z,5.35
2023-05-02T03:29:01.402Z,4.85
2023-05-02T03:31:29.232Z,4.47
2023-05-02T03:33:57.069Z,5.30
2023-05-02T03:36:24.794Z,5.18
2023-05-02T03:38:53.832Z,4.70
2023-05-02T03:41:21.863Z,5.13
2023-05-02T03:43:49.567Z,4.88
2023-05-02T03:46:17.528Z,4.82
2023-05-02T03:48:46.364Z,5.05
2023-05-02T03:51:14.355Z,4.57
2023-05-02T03:53:42.156Z,5.00
2023-05-02T03:56:11.208Z,4.85
2023-05-02T03:58:38.985Z,5.05
2023-05-02T04:01:14.921Z,4.28
2023-05-02T04:03:42.970Z,5.32
2023-05-02T04:06:10.765Z,5.20
2023-05-02T04:08:38.675Z,4.63
2023-05-02T04:11:06.464Z,5.85
2023-05-02T04:13:35.569Z,4.70
2023-05-02T04:16:04.500Z,5.30
2023-05-02T04:18:32.478Z,5.15
2023-05-02T04:21:00.232Z,5.10
2023-05-02T04:23:27.956Z,6.47
2023-05-02T04:25:56.492Z,5.80
2023-05-02T04:28:24.601Z,6.43
2023-05-02T04:30:54.046Z,6.20
2023-05-02T04:33:21.825Z,5.70
2023-05-02T04:35:49.596Z,5.97
2023-05-02T04:38:17.567Z,6.28
2023-05-02T04:40:45.910Z,7.05
2023-05-02T04:43:13.698Z,6.60
2023-05-02T04:45:41.409Z,6.47
2023-05-02T04:48:10.494Z,7.88
2023-05-02T04:50:38.344Z,7.07
2023-05-02T04:53:06.297Z,9.65
2023-05-02T04:55:33.969Z,5.63
2023-05-02T04:58:01.707Z,7.80
2023-05-02T05:00:30.096Z,6.93
2023-05-02T05:02:59.253Z,5.28
2023-05-02T05:05:30.088Z,5.70
2023-05-02T05:07:57.861Z,5.85
2023-05-02T05:10:25.799Z,6.20
2023-05-02T05:12:53.968Z,6.05
2023-05-02T05:15:23.864Z,4.90
2023-05-02T05:17:51.699Z,5.75
2023-05-02T05:20:19.816Z,5.72
2023-05-02T05:22:49.041Z,5.95
2023-05-02T05:25:16.728Z,6.20
2023-05-02T05:27:44.500Z,6.30
2023-05-02T05:30:12.789Z,5.40
2023-05-02T05:32:40.633Z,5.03
2023-05-02T05:35:09.493Z,4.88
2023-05-02T05:37:39.365Z,5.55
2023-05-02T05:40:09.850Z,8.10
2023-05-02T05:42:37.580Z,6.25
2023-05-02T05:45:06.044Z,5.97
2023-05-02T05:47:33.971Z,6.20
2023-05-02T05:50:02.090Z,6.72
2023-05-02T05:52:30.123Z,9.95
2023-05-02T05:54:57.879Z,9.15
2023-05-02T05:57:27.100Z,7.15
2023-05-02T05:59:55.140Z,6.88
2023-05-02T06:02:22.921Z,6.57
2023-05-02T06:04:50.771Z,6.72
2023-05-02T06:07:18.494Z,8.73
2023-05-02T06:09:46.236Z,8.07
2023-05-02T06:12:16.251Z,8.13
2023-05-02T06:14:45.293Z,8.65
2023-05-02T06:17:13.136Z,8.60
2023-05-02T06:19:41.072Z,9.55
2023-05-02T06:22:08.789Z,11.43
2023-05-02T06:24:37.756Z,10.88
2023-05-02T06:27:05.612Z,12.32
2023-05-02T06:29:33.328Z,12.77
2023-05-02T06:32:02.446Z,13.80
2023-05-02T06:34:32.574Z,13.25
2023-05-02T06:37:00.486Z,14.32
2023-05-02T06:39:28.329Z,13.85
2023-05-02T06:41:58.188Z,12.20
2023-05-02T06:44:26.100Z,9.52
2023-05-02T06:46:55.550Z,10.18
2023-05-02T06:49:24.684Z,10.60
2023-05-02T06:51:52.493Z,12.27
2023-05-02T06:54:21.726Z,13.10
2023-05-02T06:56:49.501Z,14.48
2023-05-02T06:59:17.544Z,13.65
2023-05-02T07:01:45.465Z,13.80
2023-05-02T07:04:13.350Z,13.00
2023-05-02T07:06:42.693Z,14.43
2023-05-02T07:09:10.653Z,14.73
2023-05-02T07:11:38.437Z,15.75
2023-05-02T07:14:06.409Z,15.80
2023-05-02T07:16:34.249Z,17.40
2023-05-02T07:19:04.466Z,16.33
2023-05-02T07:21:32.338Z,16.75
2023-05-02T07:24:01.941Z,18.73
2023-05-02T07:26:29.746Z,20.58
2023-05-02T07:28:57.558Z,17.67
2023-05-02T07:31:25.408Z,19.65
2023-05-02T07:33:53.230Z,20.85
2023-05-02T07:36:21.331Z,20.67
2023-05-02T07:38:49.096Z,20.75
2023-05-02T07:41:18.253Z,22.63
2023-05-02T07:43:46.097Z,20.25
2023-05-02T07:46:13.829Z,21.50
2023-05-02T07:48:42.685Z,21.38
2023-05-02T07:51:11.698Z,21.73
2023-05-02T07:53:39.449Z,21.02
2023-05-02T07:56:08.733Z,21.38
2023-05-02T07:58:38.010Z,22.83
2023-05-02T08:01:07.607Z,21.98
2023-05-02T08:03:37.487Z,20.42
2023-05-02T08:06:07.393Z,21.65
2023-05-02T08:08:37.403Z,21.52
2023-05-02T08:11:07.468Z,21.02
2023-05-02T08:13:38.709Z,19.25
2023-05-02T08:16:09.249Z,18.67
2023-05-02T08:18:39.002Z,19.20
2023-05-02T08:21:09.245Z,19.83
2023-05-02T08:23:39.336Z,20.15
2023-05-02T08:26:09.830Z,22.27
2023-05-02T08:28:40.978Z,20.27
2023-05-02T08:31:10.533Z,22.52
2023-05-02T08:33:40.519Z,17.10
2023-05-02T08:36:17.666Z,19.80
2023-05-02T08:38:48.670Z,17.65
2023-05-02T08:41:19.870Z,19.45
2023-05-02T08:43:51.456Z,19.92
2023-05-02T08:46:25.342Z,19.38
2023-05-02T08:48:55.941Z,19.25
2023-05-02T08:51:26.584Z,17.58
2023-05-02T08:53:57.957Z,16.85
2023-05-02T08:56:27.758Z,16.42
2023-05-02T08:58:57.094Z,15.48
2023-05-02T09:01:29.645Z,16.60
2023-05-02T09:03:59.184Z,16.58
2023-05-02T09:06:28.041Z,16.38
2023-05-02T09:08:56.242Z,18.23
2023-05-02T09:11:24.028Z,21.20
2023-05-02T09:13:53.381Z,20.70
2023-05-02T09:16:24.054Z,20.63
2023-05-02T09:18:53.751Z,19.10
2023-05-02T09:21:23.494Z,18.92
2023-05-02T09:23:52.817Z,19.02
2023-05-02T09:26:22.049Z,18.13
2023-05-02T09:28:50.592Z,16.65
2023-05-02T09:31:43.574Z,16.05
2023-05-02T09:34:12.724Z,16.30
2023-05-02T09:36:42.010Z,15.43
2023-05-02T09:39:13.054Z,14.57
2023-05-02T09:41:41.720Z,14.55
2023-05-02T09:44:11.984Z,15.07
2023-05-02T09:46:43.755Z,15.13
2023-05-02T09:49:14.626Z,13.75
2023-05-02T09:51:43.970Z,14.77
2023-05-02T09:54:11.895Z,16.63
2023-05-02T09:56:54.063Z,14.98
2023-05-02T09:59:21.792Z,15.38
2023-05-02T10:01:57.474Z,15.15
2023-05-02T10:06:56.268Z,14.45
2023-05-02T10:09:24.525Z,15.43
2023-05-02T10:11:54.023Z,15.90
2023-05-02T10:14:23.275Z,16.00
2023-05-02T10:17:00.946Z,14.73
2023-05-02T10:19:32.201Z,13.15
2023-05-02T10:22:00.251Z,12.88
2023-05-02T10:24:29.553Z,13.43
2023-05-02T10:26:57.546Z,13.07
2023-05-02T10:29:25.741Z,14.10
2023-05-02T10:31:54.460Z,13.30
2023-05-02T10:34:23.185Z,15.43
2023-05-02T10:36:52.309Z,17.08
2023-05-02T10:39:24.349Z,16.33
2023-05-02T10:41:55.061Z,25.98
2023-05-02T10:44:34.568Z,15.23
2023-05-02T10:47:02.854Z,15.02
2023-05-02T10:49:30.721Z,15.25
2023-05-02T10:51:59.916Z,14.75
2023-05-02T10:54:27.663Z,14.70
2023-05-02T10:57:13.169Z,13.73
2023-05-02T10:59:42.541Z,13.55
2023-05-02T11:02:44.465Z,14.27
2023-05-02T11:05:12.389Z,12.13
2023-05-02T11:07:42.563Z,11.40
2023-05-02T11:10:27.360Z,10.45
2023-05-02T11:12:56.215Z,10.32
2023-05-02T11:16:01.168Z,10.68
2023-05-02T11:18:48.968Z,9.13
2023-05-02T11:21:31.050Z,8.45
2023-05-02T11:24:35.885Z,7.70
2023-05-02T11:27:38.925Z,7.55
2023-05-02T11:30:09.872Z,7.22
2023-05-02T11:33:17.061Z,7.20
2023-05-02T11:35:46.602Z,7.10
2023-05-02T11:38:19.654Z,7.32
2023-05-02T11:40:58.853Z,6.78
2023-05-02T11:43:30.682Z,6.18
2023-05-02T11:46:02.118Z,6.22
2023-05-02T11:48:31.202Z,6.55
2023-05-02T11:51:03.358Z,8.13
2023-05-02T11:53:32.007Z,6.75
2023-05-02T11:56:01.521Z,6.57
2023-05-02T11:58:32.667Z,6.53
2023-05-02T12:01:14.056Z,7.05
2023-05-02T12:03:42.131Z,6.90
2023-05-02T12:06:12.428Z,7.13
2023-05-02T12:08:41.405Z,7.18
2023-05-02T12:11:09.341Z,7.05
2023-05-02T12:13:46.173Z,5.15
2023-05-02T12:16:15.745Z,4.90
2023-05-02T12:18:43.795Z,4.57
2023-05-02T12:21:11.802Z,5.50
2023-05-02T12:23:42.320Z,5.38
2023-05-02T12:26:21.155Z,4.97
2023-05-02T12:28:52.730Z,5.03
2023-05-02T12:31:22.429Z,4.63
2023-05-02T12:33:52.355Z,3.90
2023-05-02T12:36:20.601Z,4.03
2023-05-02T12:38:52.978Z,4.72
2023-05-02T12:41:30.989Z,4.35
2023-05-02T12:44:00.660Z,5.82
2023-05-02T12:46:30.080Z,8.88
2023-05-02T12:49:05.644Z,7.85
2023-05-02T12:51:34.388Z,4.93
2023-05-02T12:54:02.306Z,4.32
2023-05-02T12:56:32.383Z,4.40
2023-05-02T12:59:01.280Z,5.07
2023-05-02T13:01:31.519Z,4.20
2023-05-02T13:03:59.481Z,4.50
2023-05-02T13:06:28.040Z,4.70
2023-05-02T13:08:55.832Z,4.55
2023-05-02T13:11:24.469Z,4.38
2023-05-02T13:13:52.334Z,4.13
2023-05-02T13:16:20.111Z,5.97
2023-05-02T13:18:49.294Z,4.50
2023-05-02T13:21:17.241Z,4.82
2023-05-02T13:23:45.793Z,8.27
2023-05-02T13:26:13.511Z,4.90
2023-05-02T13:28:41.265Z,4.95
2023-05-02T13:31:09.140Z,3.95
2023-05-02T13:33:36.996Z,4.78
2023-05-02T13:36:06.588Z,4.50
2023-05-02T13:38:34.938Z,4.68
2023-05-02T13:41:02.848Z,4.43
2023-05-02T13:43:30.771Z,4.40
2023-05-02T13:45:58.850Z,4.07
2023-05-02T13:48:26.753Z,4.80
2023-05-02T13:50:54.550Z,3.92
2023-05-02T13:53:23.653Z,4.10
2023-05-02T13:55:51.827Z,4.45
2023-05-02T13:58:19.801Z,4.35
2023-05-02T14:00:47.633Z,4.05
2023-05-02T14:03:15.999Z,3.30
2023-05-02T14:05:44.035Z,4.82
2023-05-02T14:08:11.965Z,4.07
2023-05-02T14:10:41.285Z,3.63
2023-05-02T14:13:09.117Z,3.97
2023-05-02T14:15:37.604Z,4.00
2023-05-02T14:18:05.600Z,3.70
2023-05-02T14:20:33.389Z,4.07
2023-05-02T14:23:01.185Z,4.05
2023-05-02T14:25:28.964Z,3.53
2023-05-02T14:27:58.014Z,2.92
2023-05-02T14:30:25.904Z,2.38
2023-05-02T14:32:53.751Z,2.30
2023-05-02T14:35:21.780Z,3.70
2023-05-02T14:37:49.540Z,3.55
2023-05-02T14:40:17.605Z,4.07
2023-05-02T14:42:45.426Z,3.22
2023-05-02T14:45:14.564Z,3.30
2023-05-02T14:47:42.307Z,4.40
2023-05-02T14:50:10.932Z,3.83
2023-05-02T14:52:38.610Z,4.15
2023-05-02T14:55:07.261Z,3.70
2023-05-02T14:57:35.082Z,4.00
2023-05-02T15:00:04.818Z,3.20
2023-05-02T15:02:34.316Z,3.80
2023-05-02T15:05:02.958Z,3.70
2023-05-02T15:07:30.895Z,3.50
2023-05-02T15:09:58.725Z,3.28
2023-05-02T15:12:26.702Z,3.03
2023-05-02T15:14:54.405Z,3.13
2023-05-02T15:17:22.500Z,2.90
2023-05-02T15:19:51.644Z,2.67
2023-05-02T15:22:19.520Z,2.78
2023-05-02T15:24:47.637Z,2.67
2023-05-02T15:27:15.665Z,2.53
2023-05-02T15:29:43.411Z,2.22
2023-05-02T15:32:11.196Z,3.03
2023-05-02T15:34:41.122Z,3.58
2023-05-02T15:37:10.301Z,3.63
2023-05-02T15:39:38.176Z,4.20
2023-05-02T15:42:07.036Z,4.07
2023-05-02T15:44:36.458Z,3.05
2023-05-02T15:47:04.990Z,2.55
2023-05-02T15:49:33.424Z,2.53
2023-05-02T15:52:02.612Z,2.33
2023-05-02T15:54:32.726Z,2.67
2023-05-02T15:57:00.745Z,2.30
2023-05-02T15:59:30.566Z,2.58
2023-05-02T16:01:58.355Z,1.95
2023-05-02T16:04:27.699Z,2.50
2023-05-02T16:06:55.665Z,2.40
2023-05-02T16:09:23.688Z,2.50
2023-05-02T16:11:52.732Z,2.85
2023-05-02T16:14:23.792Z,2.60
2023-05-02T16:16:51.563Z,3.35
2023-05-02T16:19:19.335Z,2.75
2023-05-02T16:21:47.225Z,3.00
2023-05-02T16:24:15.056Z,3.10
2023-05-02T16:26:43.105Z,3.25
2023-05-02T16:29:12.125Z,3.13
2023-05-02T16:31:40.516Z,2.97
2023-05-02T16:34:09.524Z,4.85
2023-05-02T16:36:37.334Z,3.03
2023-05-02T16:39:05.240Z,2.80
2023-05-02T16:41:35.182Z,2.60
2023-05-02T16:44:03.177Z,2.70
2023-05-02T16:46:32.710Z,2.70
2023-05-02T16:49:00.542Z,3.17
2023-05-02T16:51:28.747Z,2.95
2023-05-02T16:53:56.627Z,3.58
2023-05-02T16:56:24.515Z,3.25
2023-05-02T16:58:52.352Z,2.83
2023-05-02T17:01:20.124Z,2.95
2023-05-02T17:03:49.246Z,3.92
2023-05-02T17:06:17.083Z,3.30
2023-05-02T17:08:45.540Z,3.30
2023-05-02T17:11:13.380Z,4.07
2023-05-02T17:13:42.278Z,4.13
2023-05-02T17:16:10.151Z,3.53
2023-05-02T17:18:38.199Z,3.55
2023-05-02T17:21:07.700Z,4.10
2023-05-02T17:23:35.474Z,4.72
2023-05-02T17:26:04.114Z,3.90
2023-05-02T17:28:31.894Z,3.60
2023-05-02T17:30:59.911Z,3.70
2023-05-02T17:33:28.101Z,3.92
2023-05-02T17:35:55.967Z,3.30
2023-05-02T17:38:26.591Z,4.65
2023-05-02T17:40:54.395Z,3.90
2023-05-02T17:43:22.145Z,4.15
2023-05-02T17:45:49.998Z,4.18
2023-05-02T17:48:18.816Z,3.88
2023-05-02T17:50:46.605Z,3.65
2023-05-02T17:53:15.378Z,3.65
2023-05-02T17:55:44.419Z,3.88
2023-05-02T17:58:12.116Z,3.70
2023-05-02T18:00:40.238Z,3.50
2023-05-02T18:03:08.216Z,3.10
2023-05-02T18:05:39.451Z,3.15
2023-05-02T18:08:07.696Z,3.58
2023-05-02T18:10:38.375Z,3.25
2023-05-02T18:13:07.430Z,2.92
2023-05-02T18:15:36.252Z,3.40
2023-05-02T18:18:04.253Z,3.45
2023-05-02T18:20:32.012Z,2.88
2023-05-02T18:23:01.233Z,2.63
2023-05-02T18:25:29.048Z,2.50
2023-05-02T18:27:56.830Z,2.72
2023-05-02T18:30:25.963Z,2.47
2023-05-02T18:32:53.700Z,2.53
2023-05-02T18:35:21.641Z,2.25
2023-05-02T18:37:49.422Z,2.35
2023-05-02T18:40:17.206Z,2.22
2023-05-02T18:42:44.982Z,2.40
2023-05-02T18:45:12.829Z,2.63
2023-05-02T18:47:41.997Z,2.63
2023-05-02T18:50:09.971Z,2.38
2023-05-02T18:52:37.816Z,2.42
2023-05-02T18:55:06.339Z,2.65
2023-05-02T18:57:34.560Z,2.45
2023-05-02T19:00:02.308Z,2.80
2023-05-02T19:02:30.099Z,2.53
2023-05-02T19:04:59.318Z,2.50
2023-05-02T19:07:27.709Z,2.75
2023-05-02T19:09:55.418Z,3.38
2023-05-02T19:12:23.267Z,3.05
2023-05-02T19:14:51.187Z,2.50
2023-05-02T19:17:18.987Z,2.80
2023-05-02T19:19:47.934Z,2.67
2023-05-02T19:22:17.018Z,2.72
2023-05-02T19:24:45.869Z,2.65
2023-05-02T19:27:13.700Z,3.15
2023-05-02T19:29:41.597Z,3.22
2023-05-02T19:32:09.749Z,2.45
2023-05-02T19:34:37.849Z,2.60
2023-05-02T19:37:05.572Z,2.80
2023-05-02T19:39:34.679Z,2.90
2023-05-02T19:42:02.988Z,2.78
2023-05-02T19:44:30.848Z,3.10
2023-05-02T19:46:58.716Z,3.70
2023-05-02T19:49:26.631Z,2.92
2023-05-02T19:51:54.349Z,2.85
2023-05-02T19:54:22.221Z,2.88
2023-05-02T19:56:51.250Z,2.60
2023-05-02T19:59:19.033Z,5.22
2023-05-02T20:01:47.093Z,2.80
2023-05-02T20:04:15.258Z,2.97
2023-05-02T20:06:43.450Z,3.13
2023-05-02T20:09:11.409Z,3.20
2023-05-02T20:11:39.208Z,3.28
2023-05-02T20:14:08.506Z,2.92
2023-05-02T20:16:36.367Z,2.50
2023-05-02T20:19:04.182Z,3.10
2023-05-02T20:21:32.338Z,3.00
2023-05-02T20:24:00.249Z,2.53
2023-05-02T20:26:31.148Z,3.00
2023-05-02T20:28:59.482Z,3.13
2023-05-02T20:31:28.539Z,2.80
2023-05-02T20:33:56.442Z,2.78
2023-05-02T20:36:24.382Z,2.80
2023-05-02T20:38:52.104Z,2.90
2023-05-02T20:41:20.197Z,3.25
2023-05-02T20:43:47.942Z,3.10
2023-05-02T20:46:17.035Z,3.45
2023-05-02T20:48:46.262Z,3.03
2023-05-02T20:51:14.133Z,3.67
2023-05-02T20:53:41.938Z,3.28
2023-05-02T20:56:09.671Z,3.80
2023-05-02T20:58:37.380Z,3.40
2023-05-02T21:01:05.605Z,3.10
2023-05-02T21:03:36.568Z,3.53
2023-05-02T21:06:05.991Z,3.53
2023-05-02T21:08:33.770Z,4.18
2023-05-02T21:11:01.571Z,4.18
2023-05-02T21:13:29.425Z,3.60
2023-05-02T21:15:57.200Z,3.83
2023-05-02T21:18:24.934Z,3.28
2023-05-02T21:20:52.644Z,3.10
2023-05-02T21:23:21.801Z,3.25
2023-05-02T21:25:49.508Z,3.78
2023-05-02T21:28:17.237Z,3.72
2023-05-02T21:30:45.046Z,3.70
2023-05-02T21:33:14.811Z,3.08
2023-05-02T21:35:42.575Z,3.90
2023-05-02T21:38:10.456Z,3.47
2023-05-02T21:40:40.762Z,3.15
2023-05-02T21:43:08.452Z,3.47
2023-05-02T21:45:43.756Z,3.90
2023-05-02T21:48:11.705Z,3.70
2023-05-02T21:50:40.416Z,2.88
2023-05-02T21:53:08.236Z,4.07
2023-05-02T21:55:37.506Z,2.90
2023-05-02T21:58:07.099Z,3.15
2023-05-02T22:00:35.036Z,3.17
2023-05-02T22:03:07.528Z,3.47
2023-05-02T22:05:35.738Z,4.03
2023-05-02T22:08:03.564Z,4.82
2023-05-02T22:10:31.832Z,4.35
2023-05-02T22:12:59.565Z,3.67
2023-05-02T22:15:28.729Z,5.13
2023-05-02T22:17:57.186Z,6.18
2023-05-02T22:20:26.505Z,6.18
2023-05-02T22:22:54.496Z,5.10
2023-05-02T22:25:22.490Z,3.63
2023-05-02T22:27:50.240Z,3.72
2023-05-02T22:30:18.209Z,3.70
2023-05-02T22:32:47.341Z,3.33
2023-05-02T22:35:15.099Z,3.85
2023-05-02T22:37:42.877Z,2.80
2023-05-02T22:40:12.513Z,3.70
2023-05-02T22:42:40.259Z,3.53
2023-05-02T22:45:09.220Z,3.53
2023-05-02T22:47:37.010Z,3.58
2023-05-02T22:50:10.629Z,3.47
2023-05-02T22:52:38.855Z,3.50
2023-05-02T22:55:09.239Z,4.22
2023-05-02T22:57:37.430Z,3.60
2023-05-02T23:00:07.071Z,3.85
2023-05-02T23:02:35.027Z,3.95
2023-05-02T23:05:03.232Z,3.95
2023-05-02T23:07:32.340Z,3.88
2023-05-02T23:10:00.235Z,4.13
2023-05-02T23:12:28.246Z,4.10
2023-05-02T23:14:56.781Z,3.95
2023-05-02T23:17:24.617Z,4.05
2023-05-02T23:19:52.342Z,3.80
2023-05-02T23:22:21.105Z,3.63
2023-05-02T23:24:50.269Z,3.83
2023-05-02T23:27:17.987Z,3.38
2023-05-02T23:29:48.694Z,3.70
2023-05-02T23:32:16.913Z,3.80
2023-05-02T23:34:44.957Z,3.80
2023-05-02T23:37:13.028Z,4.68
2023-05-02T23:39:41.051Z,4.15
2023-05-02T23:42:10.328Z,4.32
2023-05-02T23:44:38.059Z,3.60
2023-05-02T23:47:06.854Z,4.40
2023-05-02T23:49:34.720Z,4.28
2023-05-02T23:52:02.720Z,3.92
2023-05-02T23:54:31.880Z,4.18
2023-05-02T23:57:01.012Z,4.22
2023-05-02T23:59:30.056Z,4.50
